Time;durP1;ratioP1;P1;durP2;ratioP2;P2;SDS_P1;SDS_P2;PMS_P1;PMS_P2;Temp;Humidity;BMP_temperature;BMP_pressure;BME280_temperature;BME280_humidity;BME280_pressure;Samples;Min_cycle;Max_cycle;Signal;HPM_P1;HPM_P2
2021/09/18 00:01:59;;;;;;;9.88;6.63;;;;;;;21.23;57.91;100878.03;5046077;28;20050;-63
2021/09/18 00:04:27;;;;;;;11.95;6.47;;;;;;;21.28;57.73;100880.50;5033559;28;20061;-64
2021/09/18 00:06:54;;;;;;;11.48;7.13;;;;;;;21.27;57.83;100880.91;5032507;28;20061;-65
2021/09/18 00:09:21;;;;;;;13.10;7.53;;;;;;;21.38;57.76;100881.81;5034668;28;20529;-64
2021/09/18 00:11:49;;;;;;;16.10;7.90;;;;;;;21.44;58.01;100878.31;5036807;28;20052;-64
2021/09/18 00:14:20;;;;;;;9.70;6.85;;;;;;;21.47;57.34;100874.72;5049803;28;20528;-64
2021/09/18 00:16:48;;;;;;;9.15;6.70;;;;;;;21.31;58.19;100876.94;5020429;28;20062;-65
2021/09/18 00:19:16;;;;;;;10.65;7.18;;;;;;;21.38;57.62;100881.81;5034876;28;20048;-64
2021/09/18 00:21:43;;;;;;;10.07;6.50;;;;;;;21.41;57.85;100887.47;5035684;28;20478;-65
2021/09/18 00:24:10;;;;;;;10.20;6.80;;;;;;;21.27;58.19;100885.28;5039382;28;20054;-64
2021/09/18 00:26:38;;;;;;;10.88;6.85;;;;;;;21.43;57.63;100879.47;5045809;28;20059;-65
2021/09/18 00:29:05;;;;;;;10.35;6.80;;;;;;;21.35;57.79;100877.78;5035919;28;20060;-64
2021/09/18 00:31:33;;;;;;;11.40;6.90;;;;;;;21.21;58.53;100870.03;5037740;28;20148;-64
2021/09/18 00:34:00;;;;;;;10.48;6.88;;;;;;;21.26;58.45;100874.47;5037225;28;20050;-64
2021/09/18 00:36:27;;;;;;;9.25;6.32;;;;;;;21.09;58.59;100869.47;5047673;28;20056;-66
2021/09/18 00:38:55;;;;;;;9.88;6.53;;;;;;;21.14;58.98;100863.53;5034927;28;20064;-66
2021/09/18 00:41:22;;;;;;;9.88;6.28;;;;;;;21.30;58.67;100866.94;5036498;28;20048;-66
2021/09/18 00:43:51;;;;;;;10.65;6.53;;;;;;;21.34;58.22;100866.97;5036287;28;20049;-67
2021/09/18 00:46:19;;;;;;;11.10;6.47;;;;;;;21.27;58.53;100868.47;5044064;28;20040;-67
2021/09/18 00:48:46;;;;;;;14.43;6.57;;;;;;;21.25;58.46;100870.84;5057000;28;20053;-67
2021/09/18 00:51:14;;;;;;;9.90;6.70;;;;;;;21.12;58.77;100866.69;5051022;28;20045;-67
2021/09/18 00:53:42;;;;;;;10.18;6.07;;;;;;;21.10;58.66;100863.47;5056356;28;20074;-68
2021/09/18 00:56:09;;;;;;;10.35;6.38;;;;;;;20.98;59.38;100869.31;5035435;28;20049;-66
2021/09/18 00:58:37;;;;;;;10.15;6.65;;;;;;;21.19;59.04;100854.78;5037938;28;20053;-66
2021/09/18 01:01:04;;;;;;;10.70;6.88;;;;;;;21.12;59.17;100851.88;5036990;28;20056;-67
2021/09/18 01:03:32;;;;;;;9.70;6.97;;;;;;;21.28;58.78;100860.91;5037791;28;20053;-66
2021/09/18 01:06:00;;;;;;;10.80;7.18;;;;;;;21.36;57.98;100853.38;5037826;28;20068;-67
2021/09/18 01:08:27;;;;;;;9.52;6.18;;;;;;;21.27;58.32;100859.25;5050897;28;20052;-67
2021/09/18 01:10:55;;;;;;;9.20;6.57;;;;;;;21.14;59.15;100853.13;5044466;28;20056;-66
2021/09/18 01:13:23;;;;;;;10.23;7.03;;;;;;;21.17;58.97;100852.34;5056041;28;20048;-66
2021/09/18 01:15:50;;;;;;;10.73;6.68;;;;;;;21.31;58.79;100850.91;5076709;28;20048;-67
2021/09/18 01:18:18;;;;;;;10.57;6.82;;;;;;;21.15;58.49;100849.13;5035698;28;20054;-66
2021/09/18 01:20:49;;;;;;;12.88;6.65;;;;;;;21.12;59.20;100846.28;5036697;28;20056;-66
2021/09/18 01:23:21;;;;;;;11.88;7.13;;;;;;;20.79;60.18;100849.00;5075054;28;20440;-66
2021/09/18 01:25:49;;;;;;;9.48;6.25;;;;;;;20.81;60.12;100846.63;5075748;28;20435;-67
2021/09/18 01:28:16;;;;;;;11.10;6.63;;;;;;;20.96;59.64;100848.44;5075103;28;20522;-68
2021/09/18 01:30:44;;;;;;;11.93;7.32;;;;;;;21.15;58.81;100848.31;5056505;28;20040;-66
2021/09/18 01:33:12;;;;;;;11.68;6.43;;;;;;;21.08;58.81;100851.03;5034571;28;20045;-67
2021/09/18 01:35:39;;;;;;;9.45;6.10;;;;;;;21.02;59.40;100853.38;5036789;28;20060;-67
2021/09/18 01:38:07;;;;;;;12.98;6.40;;;;;;;21.03;59.67;100851.34;5036486;28;20060;-66
2021/09/18 01:40:40;;;;;;;9.18;6.63;;;;;;;20.95;59.74;100855.22;5047889;28;20059;-64
2021/09/18 01:43:08;;;;;;;7.65;5.97;;;;;;;21.00;59.34;100843.72;5056633;28;20688;-65
2021/09/18 01:45:36;;;;;;;9.82;6.05;;;;;;;20.96;59.89;100848.44;5056268;28;20049;-65
2021/09/18 01:48:09;;;;;;;10.48;5.82;;;;;;;20.94;59.71;100854.41;5056655;28;20139;-64
2021/09/18 01:50:48;;;;;;;10.90;6.32;;;;;;;21.08;59.22;100837.00;5042619;28;20488;-65
2021/09/18 01:53:21;;;;;;;9.85;6.20;;;;;;;20.95;59.43;100847.66;5050866;28;20159;-65
2021/09/18 01:55:49;;;;;;;8.45;6.20;;;;;;;21.04;59.36;100844.59;5020914;28;20053;-66
2021/09/18 01:58:18;;;;;;;9.75;6.65;;;;;;;20.96;59.68;100849.25;5056405;28;20048;-64
2021/09/18 02:00:47;;;;;;;10.77;7.20;;;;;;;20.87;59.80;100859.13;5049042;28;20068;-64
2021/09/18 02:03:14;;;;;;;13.23;6.67;;;;;;;20.94;59.45;100848.00;5052309;28;20397;-65
2021/09/18 02:05:42;;;;;;;9.18;6.32;;;;;;;21.09;59.38;100838.66;5035166;28;20144;-67
2021/09/18 02:08:10;;;;;;;11.70;6.65;;;;;;;20.97;59.50;100841.66;5036326;28;20057;-67
2021/09/18 02:10:37;;;;;;;9.70;6.32;;;;;;;21.12;59.21;100846.28;5042029;28;20040;-67
2021/09/18 02:13:06;;;;;;;8.05;5.97;;;;;;;21.03;58.97;100843.78;5050259;28;20048;-67
2021/09/18 02:15:35;;;;;;;8.60;6.43;;;;;;;21.06;59.02;100837.41;5075774;28;20412;-68
2021/09/18 02:18:04;;;;;;;10.02;6.07;;;;;;;20.90;59.81;100842.34;5076063;28;20056;-68
2021/09/18 02:20:32;;;;;;;10.05;6.60;;;;;;;21.09;59.37;100841.44;5050034;28;20045;-68
2021/09/18 02:23:00;;;;;;;8.65;6.30;;;;;;;21.06;59.17;100843.00;5038656;28;20453;-66
2021/09/18 02:25:28;;;;;;;8.93;6.20;;;;;;;21.18;58.48;100839.94;5035127;28;20048;-67
2021/09/18 02:27:55;;;;;;;9.98;6.00;;;;;;;21.10;58.18;100840.25;5035452;28;20049;-64
2021/09/18 02:30:26;;;;;;;9.05;6.20;;;;;;;21.10;57.94;100834.66;5038931;28;20049;-64
2021/09/18 02:32:54;;;;;;;9.75;5.60;;;;;;;21.09;57.74;100835.84;5035121;28;20053;-65
2021/09/18 02:35:23;;;;;;;7.15;5.38;;;;;;;21.10;57.08;100831.84;5034363;28;20049;-64
2021/09/18 02:37:52;;;;;;;8.48;5.50;;;;;;;21.24;57.03;100834.81;5033450;28;20049;-64
2021/09/18 02:40:21;;;;;;;9.75;5.80;;;;;;;21.43;55.95;100834.63;5046467;28;20516;-64
2021/09/18 02:42:52;;;;;;;8.65;5.40;;;;;;;21.43;56.11;100842.25;5035198;28;20124;-65
2021/09/18 02:45:20;;;;;;;7.93;5.45;;;;;;;21.21;56.63;100830.00;5034808;28;20049;-64
2021/09/18 02:47:47;;;;;;;7.95;5.60;;;;;;;21.23;57.05;100825.59;5035050;28;20057;-64
2021/09/18 02:50:17;;;;;;;15.05;8.88;;;;;;;21.34;56.70;100825.72;5040994;28;20041;-64
2021/09/18 02:52:44;;;;;;;13.45;7.43;;;;;;;21.35;57.06;100824.56;5049052;28;20047;-65
2021/09/18 02:55:13;;;;;;;9.15;6.10;;;;;;;21.34;56.60;100827.75;5054706;28;20392;-65
2021/09/18 02:57:41;;;;;;;8.93;6.35;;;;;;;21.06;57.92;100834.59;5053659;28;20063;-65
2021/09/18 03:00:09;;;;;;;8.95;6.20;;;;;;;21.13;57.98;100836.72;5041625;28;20056;-64
2021/09/18 03:02:37;;;;;;;10.10;6.30;;;;;;;21.11;58.15;100830.69;5037585;28;20053;-63
2021/09/18 03:05:06;;;;;;;10.32;6.30;;;;;;;21.05;58.35;100826.59;5053404;28;20049;-64
2021/09/18 03:07:34;;;;;;;10.00;6.47;;;;;;;20.89;58.72;100831.53;5055197;28;20044;-65
2021/09/18 03:10:02;;;;;;;12.95;6.30;;;;;;;21.04;58.61;100839.00;5052366;28;20045;-65
2021/09/18 03:12:30;;;;;;;8.57;6.10;;;;;;;20.89;58.82;100835.16;5057600;28;20060;-64
2021/09/18 03:14:57;;;;;;;9.40;6.82;;;;;;;20.90;58.90;100833.94;5074442;28;20048;-64
2021/09/18 03:17:25;;;;;;;9.23;6.90;;;;;;;20.87;59.06;100831.13;5074903;28;20060;-64
2021/09/18 03:19:53;;;;;;;11.43;6.93;;;;;;;20.87;59.42;100822.72;5052115;28;20064;-64
2021/09/18 03:22:21;;;;;;;9.30;6.80;;;;;;;20.91;59.17;100834.78;5034475;28;20049;-65
2021/09/18 03:24:48;;;;;;;8.60;6.45;;;;;;;20.93;58.80;100827.63;5033485;28;20044;-64
2021/09/18 03:27:16;;;;;;;10.30;6.25;;;;;;;20.96;58.91;100826.84;5032911;28;20064;-64
2021/09/18 03:29:44;;;;;;;9.88;6.18;;;;;;;20.98;59.08;100826.47;5045813;28;20052;-64
2021/09/18 03:32:11;;;;;;;10.23;6.95;;;;;;;20.94;58.59;100826.41;5039509;28;20408;-64
2021/09/18 03:34:38;;;;;;;8.43;6.00;;;;;;;20.90;57.93;100816.38;5055084;28;20496;-63
2021/09/18 03:37:06;;;;;;;7.45;5.40;;;;;;;21.03;57.17;100812.16;5052612;28;20064;-64
2021/09/18 03:39:33;;;;;;;9.43;5.80;;;;;;;21.01;57.17;100818.13;5048242;28;20527;-64
2021/09/18 03:42:01;;;;;;;8.82;5.88;;;;;;;21.13;56.60;100815.09;5021409;28;20518;-64
2021/09/18 03:44:28;;;;;;;7.65;5.53;;;;;;;20.96;56.51;100818.44;5054910;28;20687;-64
2021/09/18 03:46:56;;;;;;;7.97;5.15;;;;;;;21.03;56.71;100817.75;5053943;28;20048;-64
2021/09/18 03:49:23;;;;;;;9.20;5.00;;;;;;;21.02;56.64;100821.75;5053585;28;20053;-64
2021/09/18 03:51:51;;;;;;;8.38;5.38;;;;;;;20.95;56.96;100816.84;5051842;28;20061;-64
2021/09/18 03:54:18;;;;;;;8.07;5.22;;;;;;;21.01;56.54;100811.72;5037892;28;20053;-64
2021/09/18 03:56:45;;;;;;;8.23;5.13;;;;;;;21.03;56.72;100823.34;5035565;28;20052;-63
2021/09/18 03:59:17;;;;;;;8.57;5.43;;;;;;;21.04;57.00;100819.38;5046952;28;20357;-66
2021/09/18 04:01:44;;;;;;;8.93;5.65;;;;;;;21.00;56.99;100824.13;5056019;28;20048;-66
2021/09/18 04:04:12;;;;;;;7.30;5.22;;;;;;;21.01;56.77;100820.94;5036408;28;20049;-67
2021/09/18 04:06:39;;;;;;;9.75;5.15;;;;;;;21.00;56.69;100827.75;5038123;28;20057;-67
2021/09/18 04:09:06;;;;;;;6.82;5.13;;;;;;;20.96;56.78;100829.66;5037943;28;20045;-66
2021/09/18 04:11:34;;;;;;;8.60;5.40;;;;;;;20.83;57.38;100833.06;5038568;28;20056;-66
2021/09/18 04:14:01;;;;;;;9.10;5.55;;;;;;;20.84;57.64;100832.69;5072660;28;20044;-65
2021/09/18 04:16:29;;;;;;;8.57;5.30;;;;;;;20.94;57.66;100828.41;5078347;28;20075;-64
2021/09/18 04:18:56;;;;;;;7.53;5.22;;;;;;;20.94;57.13;100828.41;5050039;28;20061;-65
2021/09/18 04:21:24;;;;;;;6.80;5.47;;;;;;;20.93;57.56;100830.41;5038031;28;20045;-64
2021/09/18 04:23:51;;;;;;;9.30;5.88;;;;;;;20.88;57.19;100827.13;5040157;28;20053;-64
2021/09/18 04:26:18;;;;;;;8.48;5.28;;;;;;;20.83;57.57;100827.47;5036136;28;20050;-65
2021/09/18 04:28:46;;;;;;;8.93;5.90;;;;;;;20.83;57.33;100821.88;5038630;28;20056;-63
2021/09/18 04:31:13;;;;;;;7.90;5.57;;;;;;;20.85;57.47;100828.69;5035613;28;20045;-65
2021/09/18 04:33:41;;;;;;;10.07;5.95;;;;;;;20.95;57.12;100818.81;5053518;28;20053;-64
2021/09/18 04:36:08;;;;;;;12.48;5.90;;;;;;;20.98;56.98;100824.50;5056452;28;20400;-64
2021/09/18 04:38:35;;;;;;;8.63;5.63;;;;;;;20.89;57.39;100829.56;5056681;28;20045;-64
2021/09/18 04:41:03;;;;;;;9.70;6.15;;;;;;;21.00;56.72;100826.91;5050758;28;20057;-65
2021/09/18 04:43:30;;;;;;;8.07;5.75;;;;;;;20.89;57.12;100832.34;5051475;28;20045;-64
2021/09/18 04:45:57;;;;;;;8.95;6.13;;;;;;;20.91;56.96;100835.59;5056727;28;20053;-64
2021/09/18 04:48:25;;;;;;;11.07;5.93;;;;;;;20.93;57.43;100838.00;5055905;28;20063;-65
2021/09/18 04:50:53;;;;;;;12.25;5.65;;;;;;;20.87;57.36;100837.53;5056033;28;20056;-64
2021/09/18 04:53:20;;;;;;;9.18;5.80;;;;;;;21.07;56.74;100839.03;5043014;28;20108;-64
2021/09/18 04:55:48;;;;;;;8.93;5.60;;;;;;;21.02;56.62;100839.38;5045847;28;20055;-64
2021/09/18 04:58:15;;;;;;;9.23;5.53;;;;;;;20.76;57.34;100841.38;5048258;28;20439;-63
2021/09/18 05:00:43;;;;;;;10.50;6.57;;;;;;;20.87;57.29;100850.75;5056318;28;20041;-65
2021/09/18 05:03:10;;;;;;;12.88;5.88;;;;;;;20.97;57.00;100836.84;5056642;28;20052;-64
2021/09/18 05:05:38;;;;;;;12.00;6.50;;;;;;;20.97;58.67;100841.66;5057235;28;20056;-65
2021/09/18 05:08:06;;;;;;;11.23;5.95;;;;;;;20.97;60.17;100842.44;5046759;28;20054;-65
2021/09/18 05:10:33;;;;;;;14.65;6.53;;;;;;;20.90;61.21;100839.56;5038302;28;20057;-64
2021/09/18 05:13:02;;;;;;;9.82;6.47;;;;;;;20.94;60.73;100839.59;5049436;28;20046;-62
2021/09/18 05:15:30;;;;;;;10.55;5.82;;;;;;;20.84;60.42;100846.69;5049680;28;20040;-63
2021/09/18 05:17:57;;;;;;;14.63;6.50;;;;;;;20.91;60.06;100838.38;5049860;28;20487;-64
2021/09/18 05:20:25;;;;;;;10.40;6.15;;;;;;;20.91;60.56;100841.19;5045982;28;20056;-66
2021/09/18 05:22:52;;;;;;;15.10;6.05;;;;;;;20.92;60.56;100847.59;5046153;28;20048;-66
2021/09/18 05:25:20;;;;;;;11.43;6.35;;;;;;;20.97;59.52;100858.47;5039902;28;20053;-64
2021/09/18 05:27:47;;;;;;;9.35;5.97;;;;;;;20.86;60.45;100857.50;5040833;28;20055;-64
2021/09/18 05:30:15;;;;;;;8.07;6.10;;;;;;;20.78;60.14;100851.00;5038118;28;20709;-65
2021/09/18 05:32:42;;;;;;;9.43;6.13;;;;;;;20.74;59.42;100860.53;5048517;28;20053;-62
2021/09/18 05:35:10;;;;;;;12.95;6.65;;;;;;;20.29;57.16;100852.25;5052662;28;20045;-62
2021/09/18 05:37:37;;;;;;;11.10;6.50;;;;;;;20.28;59.61;100859.00;5059559;28;20076;-63
2021/09/18 05:40:05;;;;;;;9.93;6.50;;;;;;;20.28;59.72;100864.59;5053341;28;20071;-63
2021/09/18 05:42:32;;;;;;;13.05;6.53;;;;;;;20.27;61.01;100855.44;5056552;28;20720;-65
2021/09/18 05:45:00;;;;;;;9.20;6.55;;;;;;;20.35;60.25;100853.53;5055805;28;20674;-63
2021/09/18 05:47:28;;;;;;;12.57;6.20;;;;;;;20.38;60.45;100856.38;5054506;28;20062;-63
2021/09/18 05:49:55;;;;;;;9.10;6.03;;;;;;;20.45;60.24;100856.50;5056005;28;20053;-64
2021/09/18 05:52:22;;;;;;;10.48;6.78;;;;;;;20.34;57.13;100860.31;5055833;28;20056;-64
2021/09/18 05:54:50;;;;;;;10.18;6.18;;;;;;;20.37;60.39;100860.38;5042156;28;20520;-63
2021/09/18 05:57:17;;;;;;;8.82;6.15;;;;;;;20.40;59.70;100864.44;5054107;28;20539;-63
2021/09/18 05:59:45;;;;;;;13.23;7.13;;;;;;;20.11;59.80;100863.13;5056349;28;20056;-64
2021/09/18 06:02:12;;;;;;;11.32;6.68;;;;;;;20.27;60.29;100866.63;5054106;28;20488;-64
2021/09/18 06:04:39;;;;;;;9.57;5.93;;;;;;;20.36;59.86;100874.75;5056218;28;20048;-65
2021/09/18 06:07:07;;;;;;;12.18;6.45;;;;;;;20.35;58.98;100876.72;5055166;28;20045;-65
2021/09/18 06:09:34;;;;;;;12.98;7.13;;;;;;;20.01;59.36;100872.94;5038748;28;20072;-65
2021/09/18 06:12:02;;;;;;;13.48;6.35;;;;;;;20.30;60.28;100877.06;5055824;28;20049;-66
2021/09/18 06:14:30;;;;;;;12.15;6.45;;;;;;;20.26;59.71;100886.56;5057345;28;20645;-67
2021/09/18 06:16:57;;;;;;;8.98;6.13;;;;;;;20.43;59.66;100881.28;5053212;28;20056;-65
2021/09/18 06:19:26;;;;;;;8.85;5.70;;;;;;;20.47;59.73;100884.91;5017361;28;20049;-63
2021/09/18 06:21:53;;;;;;;11.60;5.63;;;;;;;20.60;58.79;100880.75;5043283;28;20064;-65
2021/09/18 06:24:21;;;;;;;9.93;5.80;;;;;;;20.69;58.48;100886.06;5024992;28;20057;-64
2021/09/18 06:26:48;;;;;;;10.05;5.90;;;;;;;20.62;58.23;100881.16;5035878;28;20050;-64
2021/09/18 06:29:16;;;;;;;9.20;6.30;;;;;;;20.57;58.06;100881.50;5051711;28;20068;-65
2021/09/18 06:31:46;;;;;;;10.13;6.28;;;;;;;20.40;58.99;100884.03;5006379;28;20057;-65
2021/09/18 06:34:14;;;;;;;11.90;6.50;;;;;;;20.64;59.13;100875.19;5052955;28;20057;-65
2021/09/18 06:36:42;;;;;;;11.23;6.35;;;;;;;20.63;58.05;100884.75;5037745;28;20060;-65
2021/09/18 06:39:09;;;;;;;9.70;6.32;;;;;;;20.64;58.39;100875.97;5053702;28;20053;-65
2021/09/18 06:41:36;;;;;;;9.38;6.55;;;;;;;20.52;57.70;100867.81;5035716;28;20045;-65
2021/09/18 06:44:06;;;;;;;14.32;8.00;;;;;;;20.64;58.18;100878.78;5033900;28;20064;-64
2021/09/18 06:46:34;;;;;;;11.93;6.53;;;;;;;20.40;58.35;100875.63;5035408;28;20049;-63
2021/09/18 06:49:02;;;;;;;8.65;5.97;;;;;;;20.35;59.26;100876.72;5035409;28;20064;-66
2021/09/18 06:51:29;;;;;;;9.95;6.85;;;;;;;20.57;58.50;100877.88;5017302;28;20412;-64
2021/09/18 06:53:57;;;;;;;10.13;6.20;;;;;;;20.52;58.58;100878.22;5054087;28;20048;-65
2021/09/18 06:56:24;;;;;;;9.77;6.00;;;;;;;20.61;57.83;100878.72;5070732;28;20048;-65
2021/09/18 06:58:55;;;;;;;6.90;5.40;;;;;;;20.73;57.77;100873.72;5075309;28;20052;-62
2021/09/18 07:01:23;;;;;;;10.60;5.30;;;;;;;20.89;57.30;100879.13;5074528;28;20056;-63
2021/09/18 07:03:51;;;;;;;9.60;6.53;;;;;;;20.70;57.44;100874.47;5073712;28;20052;-63
2021/09/18 07:06:19;;;;;;;10.65;5.43;;;;;;;20.59;57.82;100881.13;5074243;28;20064;-63
2021/09/18 07:08:47;;;;;;;11.38;6.03;;;;;;;20.50;58.09;100878.59;5075247;28;20052;-64
2021/09/18 07:11:14;;;;;;;8.00;5.35;;;;;;;20.76;57.55;100881.38;5073040;28;20645;-64
2021/09/18 07:13:42;;;;;;;10.77;6.15;;;;;;;20.61;57.41;100884.31;5054783;28;20049;-64
2021/09/18 07:16:09;;;;;;;10.25;6.15;;;;;;;20.25;56.94;100885.75;5024654;28;20049;-64
2021/09/18 07:18:37;;;;;;;12.05;6.78;;;;;;;20.21;57.48;100882.09;5034399;28;20049;-65
2021/09/18 07:21:04;;;;;;;13.07;8.13;;;;;;;20.12;56.58;100885.13;5032383;28;20053;-64
2021/09/18 07:23:31;;;;;;;11.13;6.80;;;;;;;19.88;59.35;100881.88;5051317;28;20049;-65
2021/09/18 07:25:59;;;;;;;9.57;6.78;;;;;;;19.99;58.00;100889.28;5054639;28;20468;-64
2021/09/18 07:28:28;;;;;;;14.48;6.93;;;;;;;20.00;58.26;100888.09;5042071;28;20073;-65
2021/09/18 07:30:56;;;;;;;9.10;5.72;;;;;;;20.29;58.39;100885.81;5033118;28;20438;-65
2021/09/18 07:33:23;;;;;;;12.95;7.20;;;;;;;20.66;56.99;100892.44;5032494;28;20045;-65
2021/09/18 07:35:50;;;;;;;9.60;6.50;;;;;;;20.72;56.87;100888.09;5032973;28;20045;-65
2021/09/18 07:38:18;;;;;;;10.68;7.55;;;;;;;20.69;56.71;100891.66;5031922;28;20058;-65
2021/09/18 07:40:45;;;;;;;11.15;6.50;;;;;;;20.63;57.31;100890.34;5033771;28;20057;-65
2021/09/18 07:43:13;;;;;;;9.15;6.20;;;;;;;20.61;57.34;100893.53;5033804;28;20059;-65
2021/09/18 07:45:43;;;;;;;10.95;6.95;;;;;;;20.47;56.45;100893.31;5032830;28;20141;-66
2021/09/18 07:48:12;;;;;;;10.75;6.72;;;;;;;20.64;56.86;100887.19;5033500;28;20053;-66
2021/09/18 07:50:40;;;;;;;9.57;6.68;;;;;;;20.66;56.92;100892.44;5050783;28;20064;-63
2021/09/18 07:53:07;;;;;;;11.48;6.97;;;;;;;20.90;56.66;100897.56;5053806;28;20496;-63
2021/09/18 07:55:40;;;;;;;9.77;6.13;;;;;;;21.03;55.77;100891.38;5053118;28;20657;-63
2021/09/18 07:58:16;;;;;;;10.13;6.28;;;;;;;20.96;55.76;100899.66;5054344;28;20060;-64
2021/09/18 08:00:44;;;;;;;9.23;5.55;;;;;;;21.17;55.50;100899.16;5054019;28;20049;-63
2021/09/18 08:03:14;;;;;;;10.10;6.38;;;;;;;21.13;55.13;100896.31;5054468;28;20049;-63
2021/09/18 08:05:42;;;;;;;;;;;;;;;21.02;55.01;100901.00;5054302;28;20068;-64
2021/09/18 08:08:09;;;;;;;8.93;5.47;;;;;;;20.75;55.83;100901.34;5054716;28;20268;-65
2021/09/18 08:10:37;;;;;;;12.43;7.75;;;;;;;20.96;56.03;100910.88;5054154;28;20041;-63
2021/09/18 08:13:04;;;;;;;14.65;9.10;;;;;;;20.75;54.08;100913.34;5060369;28;20048;-63
2021/09/18 08:15:32;;;;;;;10.80;5.47;;;;;;;20.58;56.59;100907.47;5052325;28;20492;-64
2021/09/18 08:17:59;;;;;;;9.80;5.88;;;;;;;20.66;56.85;100909.22;5054019;28;20516;-63
2021/09/18 08:20:27;;;;;;;20.60;7.93;;;;;;;20.69;54.43;100912.06;5054354;28;20056;-63
2021/09/18 08:22:54;;;;;;;7.40;5.35;;;;;;;20.84;56.05;100915.88;5054368;28;20053;-63
2021/09/18 08:25:22;;;;;;;9.88;5.22;;;;;;;20.80;55.91;100915.03;5054216;28;20055;-65
2021/09/18 08:27:50;;;;;;;10.65;5.53;;;;;;;21.04;55.73;100917.41;5054097;28;20049;-64
2021/09/18 08:30:17;;;;;;;10.52;5.93;;;;;;;21.14;55.22;100909.16;5054252;28;20045;-64
2021/09/18 08:32:45;;;;;;;9.25;5.18;;;;;;;21.24;54.93;100916.06;5054576;28;20056;-64
2021/09/18 08:35:12;;;;;;;8.18;5.00;;;;;;;21.45;54.75;100912.72;5052666;28;20072;-64
2021/09/18 08:37:40;;;;;;;8.43;4.47;;;;;;;21.26;53.96;100913.69;5053423;28;20052;-64
2021/09/18 08:40:08;;;;;;;12.93;6.00;;;;;;;21.42;54.01;100905.09;5052970;28;20129;-64
2021/09/18 08:42:40;;;;;;;11.55;5.22;;;;;;;21.37;54.28;100903.44;5054307;28;20056;-63
2021/09/18 08:45:12;;;;;;;7.80;4.63;;;;;;;21.48;53.90;100901.56;5057418;28;20382;-64
2021/09/18 08:47:41;;;;;;;8.70;5.20;;;;;;;21.67;53.36;100897.78;5056216;28;20049;-64
2021/09/18 08:50:14;;;;;;;12.70;7.68;;;;;;;21.49;54.03;100894.78;5057384;28;20051;-64
2021/09/18 08:52:42;;;;;;;8.05;5.15;;;;;;;21.24;54.02;100902.06;5057146;28;20397;-63
2021/09/18 08:55:10;;;;;;;8.57;5.20;;;;;;;21.03;53.40;100898.97;5055578;28;20049;-63
2021/09/18 08:57:37;;;;;;;8.27;4.95;;;;;;;21.30;54.09;100894.94;5057131;28;20060;-65
2021/09/18 09:00:08;;;;;;;6.88;4.22;;;;;;;21.14;52.90;100902.75;5057064;28;20049;-64
2021/09/18 09:02:38;;;;;;;8.60;4.00;;;;;;;20.93;54.58;100899.59;5057375;28;20049;-64
2021/09/18 09:05:09;;;;;;;7.85;3.80;;;;;;;21.13;54.30;100901.91;5055381;28;20079;-65
2021/09/18 09:07:37;;;;;;;11.13;4.57;;;;;;;21.15;52.58;100898.75;5057071;28;20056;-65
2021/09/18 09:10:06;;;;;;;7.47;4.05;;;;;;;21.18;52.84;100900.81;5039157;28;20066;-65
2021/09/18 09:12:36;;;;;;;7.82;3.92;;;;;;;21.25;53.66;100893.28;5060206;28;20057;-65
2021/09/18 09:15:20;;;;;;;6.45;3.67;;;;;;;21.23;53.98;100886.44;5063599;28;20493;-65
2021/09/18 09:17:53;;;;;;;6.55;3.83;;;;;;;20.94;54.61;100896.44;5056900;28;20535;-65
2021/09/18 09:20:25;;;;;;;7.88;3.80;;;;;;;21.14;54.45;100894.34;5055136;28;20080;-65
2021/09/18 09:22:52;;;;;;;8.63;4.53;;;;;;;21.43;54.07;100889.91;5056836;28;20060;-65
2021/09/18 09:25:34;;;;;;;9.93;4.28;;;;;;;21.31;53.59;100882.53;5056411;28;20060;-65
2021/09/18 09:28:31;;;;;;;6.93;3.90;;;;;;;21.55;53.43;100879.22;5055568;28;20052;-66
2021/09/18 09:31:26;;;;;;;7.18;3.38;;;;;;;21.59;53.18;100885.69;5056604;28;20045;-64
2021/09/18 09:33:56;;;;;;;7.45;4.45;;;;;;;21.32;52.09;100875.75;5056836;28;20519;-65
2021/09/18 09:36:23;;;;;;;7.28;3.80;;;;;;;21.03;53.29;100887.78;5056222;28;20060;-65
2021/09/18 09:38:58;;;;;;;6.15;3.78;;;;;;;20.86;53.49;100880.72;5056466;28;20049;-64
2021/09/18 09:41:36;;;;;;;7.80;4.00;;;;;;;20.85;53.16;100886.72;5056391;28;20524;-65
2021/09/18 09:44:08;;;;;;;7.90;4.05;;;;;;;21.13;53.76;100882.31;5056163;28;20411;-65
2021/09/18 09:46:36;;;;;;;6.20;3.60;;;;;;;21.46;53.69;100875.94;5056544;28;20059;-65
2021/09/18 09:49:12;;;;;;;5.10;3.47;;;;;;;21.72;53.02;100872.22;5054673;28;20061;-65
2021/09/18 09:51:40;;;;;;;8.70;5.28;;;;;;;21.63;52.91;100871.69;5056029;28;20053;-65
2021/09/18 09:54:34;;;;;;;9.35;5.30;;;;;;;21.09;54.27;100877.88;5054014;28;20056;-65
2021/09/18 09:57:09;;;;;;;8.48;4.40;;;;;;;21.57;53.00;100876.03;5053975;28;20053;-65
2021/09/18 09:59:37;;;;;;;8.50;6.20;;;;;;;21.46;52.31;100873.13;5056032;28;20049;-65
2021/09/18 10:02:06;;;;;;;10.02;5.57;;;;;;;21.17;52.82;100873.97;5054773;28;20049;-66
2021/09/18 10:04:34;;;;;;;9.57;5.20;;;;;;;21.13;53.14;100873.13;5054069;28;20049;-65
2021/09/18 10:07:02;;;;;;;9.32;5.07;;;;;;;21.14;53.61;100886.75;5054285;28;20428;-64
2021/09/18 10:09:30;;;;;;;8.15;4.63;;;;;;;21.35;53.92;100877.78;5055857;28;20075;-66
2021/09/18 10:11:57;;;;;;;8.70;4.60;;;;;;;21.49;53.49;100872.34;5056041;28;20053;-64
2021/09/18 10:14:27;;;;;;;8.10;4.63;;;;;;;21.55;52.72;100872.81;5073578;28;20063;-65
2021/09/18 10:16:57;;;;;;;9.57;5.15;;;;;;;21.42;53.32;100877.88;5053050;28;20503;-65
2021/09/18 10:20:03;;;;;;;13.68;8.30;;;;;;;21.54;53.36;100886.03;5055081;28;20052;-65
2021/09/18 10:25:19;;;;;;;6.65;4.53;;;;;;;21.23;53.03;100873.22;5055106;28;20064;-65
2021/09/18 10:27:58;;;;;;;8.13;4.38;;;;;;;21.35;53.27;100869.38;5054610;28;20527;-65
2021/09/18 10:30:34;;;;;;;6.85;4.65;;;;;;;21.58;52.68;100874.84;5055446;28;20049;-65
2021/09/18 10:33:02;;;;;;;7.30;4.68;;;;;;;21.52;53.73;100862.34;5055278;28;20052;-65
2021/09/18 10:35:30;;;;;;;11.10;4.70;;;;;;;21.51;52.43;100855.97;5055206;28;20053;-65
2021/09/18 10:38:19;;;;;;;6.78;4.53;;;;;;;21.64;52.90;100860.09;5053948;28;20041;-65
2021/09/18 10:40:57;;;;;;;6.82;4.53;;;;;;;21.46;52.57;100858.31;5055153;28;20060;-65
2021/09/18 10:43:26;;;;;;;12.52;4.30;;;;;;;21.54;53.09;100857.19;5055265;28;20056;-66
2021/09/18 10:45:53;;;;;;;11.80;4.37;;;;;;;21.79;52.02;100845.06;5054952;28;20048;-65
2021/09/18 10:48:42;;;;;;;8.32;4.05;;;;;;;22.23;51.18;100845.03;5053988;28;20060;-64
2021/09/18 10:51:35;;;;;;;7.88;4.43;;;;;;;22.16;51.46;100839.38;5055199;28;20063;-66
2021/09/18 10:54:03;;;;;;;7.55;4.90;;;;;;;22.14;51.28;100844.59;5055254;28;20049;-67
2021/09/18 10:56:59;;;;;;;5.82;3.60;;;;;;;22.05;52.17;100838.50;5055011;28;20536;-65
2021/09/18 10:59:48;;;;;;;6.57;3.80;;;;;;;22.37;51.53;100819.13;5055891;28;20053;-65
2021/09/18 11:02:30;;;;;;;9.02;4.70;;;;;;;22.66;49.95;100824.56;5054880;28;20056;-65
2021/09/18 11:04:59;;;;;;;7.88;3.63;;;;;;;22.51;50.65;100822.81;5053858;28;20049;-66
2021/09/18 11:07:46;;;;;;;5.22;3.60;;;;;;;22.59;50.68;100827.31;5054469;28;20045;-65
2021/09/18 11:10:17;;;;;;;9.63;3.67;;;;;;;22.58;50.25;100827.72;5055856;28;20056;-64
2021/09/18 11:13:06;;;;;;;5.68;3.65;;;;;;;22.56;49.97;100824.47;5040813;28;20051;-65
2021/09/18 11:15:47;;;;;;;4.65;3.28;;;;;;;22.61;50.33;100821.31;5072936;28;20056;-65
2021/09/18 11:18:38;;;;;;;5.65;3.45;;;;;;;22.90;49.40;100820.25;5038258;28;20045;-65
2021/09/18 11:21:14;;;;;;;6.10;3.40;;;;;;;23.01;49.23;100821.91;5034340;28;20045;-66
2021/09/18 11:23:59;;;;;;;6.18;3.58;;;;;;;22.65;50.60;100816.53;5033455;28;20060;-64
2021/09/18 11:26:54;;;;;;;7.82;3.47;;;;;;;22.57;49.89;100810.03;5045571;28;20618;-65
2021/09/18 11:29:29;;;;;;;9.80;5.03;;;;;;;22.63;50.33;100814.06;5053192;28;20081;-65
2021/09/18 11:32:06;;;;;;;7.70;3.85;;;;;;;22.58;49.62;100816.47;5053383;28;20052;-64
2021/09/18 11:34:45;;;;;;;8.90;3.38;;;;;;;22.61;50.56;100810.06;5054836;28;20068;-64
2021/09/18 11:37:24;;;;;;;5.80;4.43;;;;;;;22.72;50.34;100808.09;5054369;28;20049;-64